createdAt,value
2018-09-15T00:01:26.949Z,6.00
2018-09-15T00:03:55.262Z,6.17
2018-09-15T00:06:23.541Z,5.87
2018-09-15T00:08:52.800Z,5.67
2018-09-15T00:11:21.049Z,5.60
2018-09-15T00:13:49.590Z,6.40
2018-09-15T00:16:17.847Z,7.03
2018-09-15T00:18:46.097Z,6.40
2018-09-15T00:21:14.333Z,7.13
2018-09-15T00:23:42.581Z,6.77
2018-09-15T00:26:10.889Z,7.53
2018-09-15T00:28:39.133Z,6.80
2018-09-15T00:31:08.310Z,7.13
2018-09-15T00:33:36.554Z,6.77
2018-09-15T00:36:04.843Z,6.83
2018-09-15T00:38:33.225Z,6.80
2018-09-15T00:41:01.487Z,6.60
2018-09-15T00:43:29.725Z,7.17
2018-09-15T00:45:58.030Z,7.00
2018-09-15T00:48:26.298Z,7.07
2018-09-15T00:50:54.647Z,6.30
2018-09-15T00:53:22.857Z,6.80
2018-09-15T00:55:51.137Z,6.77
2018-09-15T00:58:24.370Z,6.67
2018-09-15T01:00:52.643Z,6.67
2018-09-15T01:03:20.917Z,6.40
2018-09-15T01:05:49.193Z,5.67
2018-09-15T01:08:17.474Z,5.27
2018-09-15T01:10:45.768Z,5.63
2018-09-15T01:13:14.068Z,6.33
2018-09-15T01:15:42.377Z,5.60
2018-09-15T01:18:11.168Z,4.87
2018-09-15T01:20:39.728Z,5.60
2018-09-15T01:23:07.951Z,5.53
2018-09-15T01:25:36.184Z,5.70
2018-09-15T01:28:04.457Z,5.33
2018-09-15T01:30:32.722Z,5.00
2018-09-15T01:33:00.954Z,4.30
2018-09-15T01:35:29.206Z,5.40
2018-09-15T01:37:57.459Z,4.60
2018-09-15T01:40:25.740Z,4.23
2018-09-15T01:42:53.982Z,4.57
2018-09-15T01:45:22.248Z,4.80
2018-09-15T01:47:50.497Z,4.80
2018-09-15T01:50:18.750Z,4.60
2018-09-15T01:52:46.974Z,4.77
2018-09-15T01:55:15.201Z,5.00
2018-09-15T01:57:43.474Z,5.40
2018-09-15T02:00:13.787Z,4.63
2018-09-15T02:02:42.026Z,5.10
2018-09-15T02:05:10.249Z,4.70
2018-09-15T02:07:38.525Z,5.00
2018-09-15T02:10:06.796Z,5.63
2018-09-15T02:12:35.064Z,5.63
2018-09-15T02:15:03.345Z,6.00
2018-09-15T02:17:32.429Z,6.83
2018-09-15T02:20:00.720Z,6.30
2018-09-15T02:22:29.051Z,6.20
2018-09-15T02:24:57.308Z,7.10
2018-09-15T02:27:25.579Z,6.43
2018-09-15T02:29:53.872Z,5.70
2018-09-15T02:32:22.145Z,6.23
2018-09-15T02:34:50.419Z,6.20
2018-09-15T02:37:18.696Z,6.73
2018-09-15T02:39:46.987Z,6.67
2018-09-15T02:42:15.822Z,6.23
2018-09-15T02:44:44.157Z,6.47
2018-09-15T02:47:12.428Z,6.70
2018-09-15T02:49:40.716Z,6.03
2018-09-15T02:52:08.973Z,5.77
2018-09-15T02:54:37.291Z,6.43
2018-09-15T02:57:05.568Z,6.40
2018-09-15T02:59:33.843Z,6.13
2018-09-15T03:02:02.151Z,6.30
2018-09-15T03:04:30.421Z,6.07
2018-09-15T03:06:58.699Z,6.40
2018-09-15T03:09:26.960Z,6.60
2018-09-15T03:11:55.224Z,5.93
2018-09-15T03:14:23.484Z,5.93
2018-09-15T03:16:51.789Z,6.37
2018-09-15T03:19:20.092Z,5.77
2018-09-15T03:21:48.293Z,6.17
2018-09-15T03:24:16.604Z,5.33
2018-09-15T03:26:44.903Z,5.47
2018-09-15T03:29:13.264Z,6.03
2018-09-15T03:31:41.571Z,5.57
2018-09-15T03:34:09.780Z,5.57
2018-09-15T03:36:38.017Z,5.27
2018-09-15T03:39:08.631Z,5.60
2018-09-15T03:41:36.898Z,5.53
2018-09-15T03:47:08.020Z,5.50
2018-09-15T03:49:36.288Z,5.50
2018-09-15T03:52:04.560Z,5.50
2018-09-15T03:54:32.891Z,5.03
2018-09-15T03:57:01.170Z,5.40
2018-09-15T03:59:29.425Z,4.93
2018-09-15T04:01:57.684Z,4.80
2018-09-15T04:04:25.939Z,5.20
2018-09-15T04:06:54.165Z,4.67
2018-09-15T04:09:22.813Z,5.03
2018-09-15T04:11:51.009Z,4.80
2018-09-15T04:14:19.227Z,4.80
2018-09-15T04:16:47.497Z,4.50
2018-09-15T04:19:15.778Z,4.80
2018-09-15T04:21:44.040Z,4.87
2018-09-15T04:24:12.262Z,4.70
2018-09-15T04:26:40.492Z,4.93
2018-09-15T04:29:08.732Z,4.80
2018-09-15T04:31:37.156Z,4.40
2018-09-15T04:34:05.371Z,4.83
2018-09-15T04:36:33.581Z,4.33
2018-09-15T04:39:01.884Z,4.20
2018-09-15T04:41:30.085Z,3.80
2018-09-15T04:43:58.340Z,4.50
2018-09-15T04:46:27.634Z,4.13
2018-09-15T04:48:55.869Z,3.97
2018-09-15T04:51:24.100Z,3.97
2018-09-15T04:53:52.365Z,3.97
2018-09-15T04:56:20.560Z,4.27
2018-09-15T04:58:48.827Z,4.00
2018-09-15T05:01:17.363Z,4.33
2018-09-15T05:03:45.579Z,4.03
2018-09-15T05:06:13.809Z,4.03
2018-09-15T05:08:43.152Z,4.10
2018-09-15T05:11:11.360Z,4.30
2018-09-15T05:13:39.585Z,4.17
2018-09-15T05:16:07.847Z,4.30
2018-09-15T05:18:36.105Z,4.23
2018-09-15T05:21:04.871Z,4.00
2018-09-15T05:23:33.418Z,3.83
2018-09-15T05:28:36.322Z,4.30
2018-09-15T05:31:04.534Z,3.90
2018-09-15T05:33:32.778Z,3.43
2018-09-15T05:36:01.017Z,3.63
2018-09-15T05:38:34.593Z,3.80
2018-09-15T05:41:02.872Z,3.60
2018-09-15T05:43:31.680Z,3.77
2018-09-15T05:45:59.836Z,4.10
2018-09-15T05:48:28.872Z,3.80
2018-09-15T05:50:57.639Z,3.70
2018-09-15T05:53:25.891Z,4.43
2018-09-15T05:55:54.207Z,3.97
2018-09-15T05:58:22.555Z,3.50
2018-09-15T06:00:51.845Z,3.90
2018-09-15T06:03:20.093Z,4.33
2018-09-15T06:05:48.445Z,3.73
2018-09-15T06:08:16.739Z,3.80
2018-09-15T06:10:44.968Z,3.60
2018-09-15T06:13:13.254Z,3.73
2018-09-15T06:15:41.815Z,3.30
2018-09-15T06:18:10.068Z,3.33
2018-09-15T06:20:38.695Z,3.90
2018-09-15T06:23:06.922Z,3.40
2018-09-15T06:25:35.212Z,3.33
2018-09-15T06:28:04.109Z,3.60
2018-09-15T06:30:32.589Z,3.40
2018-09-15T06:33:00.792Z,3.50
2018-09-15T06:35:29.001Z,3.73
2018-09-15T06:37:58.898Z,3.67
2018-09-15T06:40:27.242Z,3.43
2018-09-15T06:42:56.538Z,3.63
2018-09-15T06:45:24.788Z,3.23
2018-09-15T06:47:53.023Z,3.60
2018-09-15T06:50:21.248Z,3.73
2018-09-15T06:52:49.518Z,3.80
2018-09-15T06:55:17.731Z,3.53
2018-09-15T06:57:46.031Z,3.73
2018-09-15T07:00:14.260Z,3.30
2018-09-15T07:02:42.495Z,3.53
2018-09-15T07:05:10.837Z,3.23
2018-09-15T07:07:38.994Z,3.10
2018-09-15T07:10:07.152Z,3.40
2018-09-15T07:12:35.368Z,4.00
2018-09-15T07:15:03.580Z,3.23
2018-09-15T07:17:31.748Z,3.00
2018-09-15T07:20:00.092Z,2.97
2018-09-15T07:22:28.519Z,3.30
2018-09-15T07:24:56.812Z,2.90
2018-09-15T07:27:25.085Z,3.30
2018-09-15T07:29:53.311Z,2.77
2018-09-15T07:32:21.533Z,3.00
2018-09-15T07:34:49.725Z,3.20
2018-09-15T07:37:17.939Z,2.67
2018-09-15T07:39:46.492Z,2.53
2018-09-15T07:42:14.709Z,2.93
2018-09-15T07:44:43.103Z,2.93
2018-09-15T07:47:11.296Z,2.90
2018-09-15T07:49:40.541Z,2.47
2018-09-15T07:52:08.839Z,2.70
2018-09-15T07:54:37.136Z,2.30
2018-09-15T07:57:05.402Z,2.37
2018-09-15T07:59:34.391Z,2.30
2018-09-15T08:02:06.876Z,2.40
2018-09-15T08:04:35.111Z,2.60
2018-09-15T08:07:03.568Z,2.70
2018-09-15T08:09:31.829Z,2.80
2018-09-15T08:12:00.756Z,2.30
2018-09-15T08:14:29.015Z,2.80
2018-09-15T08:16:57.266Z,2.60
2018-09-15T08:19:25.568Z,2.60
2018-09-15T08:21:53.918Z,2.60
2018-09-15T08:24:22.254Z,2.60
2018-09-15T08:26:50.400Z,2.33
2018-09-15T08:29:18.557Z,3.17
2018-09-15T08:31:46.720Z,2.47
2018-09-15T08:34:14.915Z,2.25
2018-09-15T08:36:43.198Z,2.40
2018-09-15T08:39:11.351Z,2.53
2018-09-15T08:41:39.508Z,2.50
2018-09-15T08:44:07.681Z,2.30
2018-09-15T08:46:35.824Z,2.33
2018-09-15T08:49:04.068Z,2.20
2018-09-15T08:51:32.224Z,2.00
2018-09-15T08:54:00.449Z,2.40
2018-09-15T08:56:28.600Z,2.30
2018-09-15T08:58:56.740Z,2.20
2018-09-15T09:01:24.892Z,2.37
2018-09-15T09:03:53.054Z,2.00
2018-09-15T09:06:21.212Z,2.57
2018-09-15T09:08:49.392Z,2.63
2018-09-15T09:11:17.544Z,2.27
2018-09-15T09:13:45.965Z,2.47
2018-09-15T09:16:14.424Z,2.50
2018-09-15T09:18:42.568Z,2.30
2018-09-15T09:21:10.823Z,2.50
2018-09-15T09:23:38.974Z,2.47
2018-09-15T09:26:07.225Z,2.40
2018-09-15T09:28:35.324Z,2.50
2018-09-15T09:31:03.515Z,2.40
2018-09-15T09:33:31.933Z,2.10
2018-09-15T09:36:00.129Z,2.10
2018-09-15T09:38:28.274Z,1.90
2018-09-15T09:40:56.436Z,2.47
2018-09-15T09:43:24.603Z,2.47
2018-09-15T09:45:52.751Z,2.50
2018-09-15T09:48:20.936Z,3.10
2018-09-15T09:50:49.681Z,2.40
2018-09-15T09:53:18.598Z,2.03
2018-09-15T09:55:47.517Z,2.10
2018-09-15T09:58:15.792Z,2.43
2018-09-15T10:00:49.584Z,2.63
2018-09-15T10:03:17.815Z,2.40
2018-09-15T10:05:46.053Z,2.73
2018-09-15T10:08:14.554Z,2.63
2018-09-15T10:10:42.793Z,2.63
2018-09-15T10:13:11.100Z,2.77
2018-09-15T10:15:39.481Z,2.70
2018-09-15T10:18:07.713Z,2.50
2018-09-15T10:20:35.951Z,2.40
2018-09-15T10:23:04.162Z,2.57
2018-09-15T10:25:32.345Z,2.90
2018-09-15T10:28:00.597Z,2.80
2018-09-15T10:30:28.837Z,2.87
2018-09-15T10:32:57.123Z,2.87
2018-09-15T10:35:25.364Z,2.93
2018-09-15T10:37:53.645Z,3.33
2018-09-15T10:40:22.074Z,3.17
2018-09-15T10:42:50.444Z,4.07
2018-09-15T10:45:19.644Z,3.80
2018-09-15T10:47:47.946Z,4.07
2018-09-15T10:50:16.474Z,4.17
2018-09-15T10:52:44.876Z,4.27
2018-09-15T10:55:13.066Z,4.10
2018-09-15T10:57:41.314Z,4.30
2018-09-15T11:00:09.679Z,3.97
2018-09-15T11:02:38.052Z,4.37
2018-09-15T11:05:06.422Z,4.00
2018-09-15T11:07:34.720Z,4.30
2018-09-15T11:10:02.975Z,4.03
2018-09-15T11:12:31.199Z,4.47
2018-09-15T11:14:59.463Z,4.43
2018-09-15T11:17:27.730Z,4.13
2018-09-15T11:19:56.074Z,3.80
2018-09-15T11:22:24.309Z,3.60
2018-09-15T11:24:52.517Z,3.93
2018-09-15T11:27:21.031Z,3.60
2018-09-15T11:29:49.373Z,3.70
2018-09-15T11:32:17.606Z,3.57
2018-09-15T11:34:45.869Z,3.70
2018-09-15T11:37:14.099Z,3.30
2018-09-15T11:39:42.255Z,3.33
2018-09-15T11:42:10.435Z,3.20
2018-09-15T11:44:38.580Z,3.03
2018-09-15T11:47:06.868Z,3.60
2018-09-15T11:49:35.086Z,3.50
2018-09-15T11:52:03.258Z,3.40
2018-09-15T11:54:31.433Z,3.53
2018-09-15T11:56:59.612Z,3.87
2018-09-15T11:59:27.527Z,4.10
2018-09-15T12:01:55.717Z,3.50
2018-09-15T12:04:23.849Z,3.50
2018-09-15T12:06:52.033Z,3.37
2018-09-15T12:09:20.187Z,3.53
2018-09-15T12:11:48.352Z,3.50
2018-09-15T12:14:16.523Z,3.23
2018-09-15T12:16:44.668Z,3.10
2018-09-15T12:19:12.855Z,2.57
2018-09-15T12:21:41.051Z,3.10
2018-09-15T12:24:09.158Z,2.70
2018-09-15T12:26:37.322Z,2.87
2018-09-15T12:29:05.544Z,2.90
2018-09-15T12:31:33.696Z,2.20
2018-09-15T12:34:01.957Z,2.53
2018-09-15T12:36:30.106Z,2.40
2018-09-15T12:38:58.845Z,2.50
2018-09-15T12:41:27.004Z,2.20
2018-09-15T12:43:55.220Z,2.80
2018-09-15T12:46:23.386Z,2.20
2018-09-15T12:48:51.537Z,2.60
2018-09-15T12:51:19.683Z,2.30
2018-09-15T12:53:47.844Z,2.40
2018-09-15T12:56:16.000Z,2.40
2018-09-15T12:58:44.156Z,4.87
2018-09-15T13:01:12.311Z,2.20
2018-09-15T13:03:40.482Z,2.70
2018-09-15T13:06:08.648Z,2.37
2018-09-15T13:08:36.791Z,2.30
2018-09-15T13:11:04.952Z,2.10
2018-09-15T13:13:33.104Z,2.40
2018-09-15T13:16:01.276Z,2.50
2018-09-15T13:18:29.435Z,2.83
2018-09-15T13:20:57.618Z,3.20
2018-09-15T13:23:25.782Z,3.23
2018-09-15T13:25:53.963Z,3.60
2018-09-15T13:28:22.128Z,3.70
2018-09-15T13:30:50.536Z,3.60
2018-09-15T13:33:18.835Z,3.53
2018-09-15T13:35:47.224Z,3.60
2018-09-15T13:38:15.375Z,3.67
2018-09-15T13:40:43.524Z,3.17
2018-09-15T13:43:11.683Z,3.40
2018-09-15T13:45:39.840Z,3.10
2018-09-15T13:48:07.997Z,2.67
2018-09-15T13:50:36.200Z,2.73
2018-09-15T13:53:04.364Z,2.53
2018-09-15T13:55:32.528Z,2.40
2018-09-15T13:58:00.712Z,2.40
2018-09-15T14:00:28.904Z,2.50
2018-09-15T14:02:57.076Z,2.50
2018-09-15T14:05:25.256Z,2.50
2018-09-15T14:07:53.420Z,2.40
2018-09-15T14:10:21.597Z,2.10
2018-09-15T14:12:49.772Z,2.03
2018-09-15T14:15:17.929Z,2.40
2018-09-15T14:17:46.090Z,2.07
2018-09-15T14:20:14.264Z,2.30
2018-09-15T14:22:42.446Z,3.07
2018-09-15T14:25:10.617Z,2.30
2018-09-15T14:27:38.788Z,2.33
2018-09-15T14:30:06.988Z,1.60
2018-09-15T14:32:35.125Z,1.17
2018-09-15T14:35:03.311Z,1.83
2018-09-15T14:37:31.459Z,1.47
2018-09-15T14:39:59.656Z,1.60
2018-09-15T14:42:27.856Z,1.70
2018-09-15T14:44:56.012Z,1.30
2018-09-15T14:47:24.189Z,1.60
2018-09-15T14:49:52.463Z,1.90
2018-09-15T14:52:27.227Z,1.50
2018-09-15T14:54:55.476Z,1.67
2018-09-15T14:57:23.665Z,1.77
2018-09-15T14:59:51.907Z,2.13
2018-09-15T15:02:20.170Z,2.10
2018-09-15T15:04:48.383Z,2.00
2018-09-15T15:07:16.656Z,2.03
2018-09-15T15:09:44.853Z,2.10
2018-09-15T15:12:13.116Z,2.40
2018-09-15T15:14:41.421Z,2.13
2018-09-15T15:17:09.620Z,2.23
2018-09-15T15:19:37.823Z,2.33
2018-09-15T15:22:05.960Z,3.03
2018-09-15T15:24:34.127Z,2.30
2018-09-15T15:27:02.293Z,2.00
2018-09-15T15:29:30.473Z,2.30
2018-09-15T15:31:59.638Z,2.10
2018-09-15T15:34:27.809Z,2.20
2018-09-15T15:36:55.936Z,2.30
2018-09-15T15:39:24.085Z,2.20
2018-09-15T15:41:52.254Z,2.27
2018-09-15T15:44:20.407Z,2.30
2018-09-15T15:46:48.552Z,2.20
2018-09-15T15:49:16.728Z,2.37
2018-09-15T15:51:44.953Z,2.20
2018-09-15T15:54:13.097Z,2.30
2018-09-15T15:56:41.244Z,2.30
2018-09-15T15:59:09.444Z,2.53
2018-09-15T16:01:37.664Z,2.20
2018-09-15T16:04:06.615Z,1.90
2018-09-15T16:06:34.772Z,2.17
2018-09-15T16:09:03.228Z,2.40
2018-09-15T16:11:31.388Z,2.33
2018-09-15T16:13:59.544Z,2.57
2018-09-15T16:16:27.714Z,2.37
2018-09-15T16:18:55.873Z,2.57
2018-09-15T16:21:24.030Z,2.67
2018-09-15T16:23:52.244Z,2.53
2018-09-15T16:26:20.525Z,2.60
2018-09-15T16:28:48.833Z,2.43
2018-09-15T16:31:17.094Z,2.43
2018-09-15T16:33:45.276Z,2.53
2018-09-15T16:36:13.780Z,2.47
2018-09-15T16:38:41.932Z,2.47
2018-09-15T16:41:10.091Z,2.17
2018-09-15T16:43:38.246Z,3.00
2018-09-15T16:46:07.887Z,3.00
2018-09-15T16:48:36.104Z,2.60
2018-09-15T16:51:04.336Z,2.47
2018-09-15T16:53:32.572Z,2.63
2018-09-15T16:56:00.828Z,2.63
2018-09-15T16:58:29.085Z,2.73
2018-09-15T17:00:57.340Z,2.77
2018-09-15T17:03:25.536Z,3.33
2018-09-15T17:05:53.704Z,2.87
2018-09-15T17:08:21.978Z,2.53
2018-09-15T17:10:50.172Z,2.80
2018-09-15T17:13:18.494Z,2.67
2018-09-15T17:15:46.673Z,3.10
2018-09-15T17:18:14.865Z,4.13
2018-09-15T17:20:43.048Z,4.73
2018-09-15T17:23:12.015Z,3.67
2018-09-15T17:25:40.282Z,2.97
2018-09-15T17:28:08.529Z,2.50
2018-09-15T17:30:36.730Z,2.83
2018-09-15T17:33:04.976Z,2.80
2018-09-15T17:35:33.252Z,2.60
2018-09-15T17:38:01.544Z,2.77
2018-09-15T17:40:29.849Z,4.43
2018-09-15T17:42:58.128Z,4.40
2018-09-15T17:45:26.883Z,2.80
2018-09-15T17:47:55.062Z,3.60
2018-09-15T17:50:23.335Z,4.63
2018-09-15T17:52:51.537Z,2.83
2018-09-15T17:55:19.696Z,4.17
2018-09-15T17:57:48.581Z,3.57
2018-09-15T18:00:18.536Z,2.50
2018-09-15T18:02:46.781Z,2.60
2018-09-15T18:05:15.792Z,2.60
2018-09-15T18:07:44.228Z,2.60
2018-09-15T18:10:12.533Z,2.47
2018-09-15T18:12:41.551Z,3.03
2018-09-15T18:15:09.884Z,2.57
2018-09-15T18:17:38.094Z,2.50
2018-09-15T18:20:06.360Z,2.50
2018-09-15T18:22:34.569Z,2.63
2018-09-15T18:25:02.773Z,2.67
2018-09-15T18:27:31.036Z,2.83
2018-09-15T18:32:40.554Z,2.83
2018-09-15T18:35:08.814Z,2.87
2018-09-15T18:37:37.073Z,2.87
2018-09-15T18:40:05.392Z,3.40
2018-09-15T18:42:33.641Z,2.70
2018-09-15T18:45:01.849Z,3.27
2018-09-15T18:50:04.803Z,3.60
2018-09-15T18:52:32.974Z,3.60
2018-09-15T18:55:01.217Z,3.30
2018-09-15T18:57:29.493Z,3.30
2018-09-15T18:59:57.719Z,3.70
2018-09-15T19:02:25.977Z,3.27
2018-09-15T19:04:54.261Z,3.63
2018-09-15T19:07:22.464Z,3.20
2018-09-15T19:09:52.331Z,3.10
2018-09-15T19:12:20.898Z,3.17
2018-09-15T19:14:49.154Z,3.73
2018-09-15T19:17:17.280Z,3.13
2018-09-15T19:19:45.478Z,3.37
2018-09-15T19:22:13.733Z,3.47
2018-09-15T19:24:41.928Z,3.17
2018-09-15T19:27:10.197Z,3.60
2018-09-15T19:29:38.395Z,3.40
2018-09-15T19:32:06.729Z,3.70
2018-09-15T19:34:34.998Z,3.73
2018-09-15T19:37:03.293Z,3.77
2018-09-15T19:39:31.494Z,3.83
2018-09-15T19:41:59.718Z,3.80
2018-09-15T19:44:27.964Z,4.13
2018-09-15T19:46:56.218Z,4.13
2018-09-15T19:49:24.465Z,4.17
2018-09-15T19:51:52.758Z,4.20
2018-09-15T19:54:20.968Z,4.50
2018-09-15T19:56:49.201Z,4.63
2018-09-15T19:59:17.476Z,4.33
2018-09-15T20:01:45.649Z,4.90
2018-09-15T20:04:14.002Z,4.70
2018-09-15T20:06:42.289Z,4.47
2018-09-15T20:09:11.453Z,4.20
2018-09-15T20:11:39.783Z,4.57
2018-09-15T20:14:08.766Z,4.43
2018-09-15T20:16:35.997Z,5.17
2018-09-15T20:19:03.300Z,4.77
2018-09-15T20:21:30.499Z,4.70
2018-09-15T20:23:58.724Z,5.13
2018-09-15T20:26:26.943Z,5.03
2018-09-15T20:28:55.201Z,5.10
2018-09-15T20:31:23.480Z,5.50
2018-09-15T20:33:51.752Z,5.20
2018-09-15T20:36:19.980Z,6.50
2018-09-15T20:38:48.277Z,5.20
2018-09-15T20:41:16.487Z,5.03
2018-09-15T20:43:44.721Z,5.63
2018-09-15T20:46:12.937Z,5.63
2018-09-15T20:48:41.146Z,5.67
2018-09-15T20:51:09.463Z,4.83
2018-09-15T20:53:37.685Z,5.40
2018-09-15T20:56:05.993Z,5.43
2018-09-15T20:58:34.221Z,5.47
2018-09-15T21:01:02.432Z,5.77
2018-09-15T21:03:31.983Z,5.83
2018-09-15T21:06:00.321Z,11.77
2018-09-15T21:08:28.717Z,63.40
2018-09-15T21:10:57.015Z,15.57
2018-09-15T21:13:25.278Z,46.10
2018-09-15T21:15:53.491Z,43.13
2018-09-15T21:18:21.783Z,18.20
2018-09-15T21:20:50.006Z,24.73
2018-09-15T21:23:18.236Z,27.90
2018-09-15T21:25:46.488Z,12.57
2018-09-15T21:28:14.716Z,8.70
2018-09-15T21:30:43.017Z,8.93
2018-09-15T21:33:11.229Z,15.93
2018-09-15T21:35:39.445Z,13.93
2018-09-15T21:38:07.692Z,10.63
2018-09-15T21:40:35.960Z,9.07
2018-09-15T21:43:04.259Z,14.77
2018-09-15T21:45:33.581Z,9.30
2018-09-15T21:48:02.673Z,16.47
2018-09-15T21:50:30.963Z,6.77
2018-09-15T21:52:59.193Z,5.67
2018-09-15T21:55:27.450Z,5.53
2018-09-15T21:57:55.658Z,5.47
2018-09-15T22:00:23.913Z,5.47
2018-09-15T22:02:52.176Z,5.27
2018-09-15T22:05:20.392Z,5.23
2018-09-15T22:07:48.660Z,5.40
2018-09-15T22:10:16.968Z,5.57
2018-09-15T22:12:45.212Z,5.23
2018-09-15T22:15:22.096Z,5.43
2018-09-15T22:17:50.380Z,5.00
2018-09-15T22:20:18.677Z,5.20
2018-09-15T22:22:46.989Z,5.00
2018-09-15T22:25:15.136Z,4.90
2018-09-15T22:27:43.349Z,5.23
2018-09-15T22:30:11.602Z,5.00
2018-09-15T22:32:39.849Z,5.00
2018-09-15T22:35:08.084Z,5.37
2018-09-15T22:37:36.898Z,5.10
2018-09-15T22:40:05.094Z,4.77
2018-09-15T22:42:40.062Z,5.30
2018-09-15T22:45:08.292Z,5.30
2018-09-15T22:47:36.637Z,4.90
2018-09-15T22:50:05.493Z,5.00
2018-09-15T22:52:33.994Z,4.83
2018-09-15T22:55:02.686Z,4.70
2018-09-15T22:57:30.949Z,4.83
2018-09-15T22:59:59.286Z,4.90
2018-09-15T23:02:27.699Z,4.87
2018-09-15T23:04:55.945Z,4.90
2018-09-15T23:07:24.176Z,5.43
2018-09-15T23:09:52.411Z,5.10
2018-09-15T23:12:20.804Z,4.93
2018-09-15T23:14:49.125Z,5.17
2018-09-15T23:17:17.488Z,4.77
2018-09-15T23:19:45.720Z,5.20
2018-09-15T23:22:13.932Z,4.63
2018-09-15T23:24:42.253Z,5.30
2018-09-15T23:27:10.440Z,5.20
2018-09-15T23:29:39.436Z,4.77
2018-09-15T23:32:07.691Z,4.93
2018-09-15T23:34:35.969Z,4.80
2018-09-15T23:37:04.342Z,5.40
2018-09-15T23:39:32.583Z,4.87
2018-09-15T23:42:00.782Z,4.80
2018-09-15T23:44:28.994Z,5.17
2018-09-15T23:46:57.217Z,4.83
2018-09-15T23:49:25.428Z,5.37
2018-09-15T23:51:53.627Z,4.80
2018-09-15T23:54:21.856Z,5.03
2018-09-15T23:56:50.153Z,5.10
2018-09-15T23:59:18.359Z,4.93
